Time;durP1;ratioP1;P1;durP2;ratioP2;P2;SDS_P1;SDS_P2;PMS_P1;PMS_P2;Temp;Humidity;BMP_temperature;BMP_pressure;BME280_temperature;BME280_humidity;BME280_pressure;Samples;Min_cycle;Max_cycle;Signal;HPM_P1;HPM_P2
2023/02/27 00:00:39;;;;;;;0.30;0.30;;;;;;;;;;5037927;28;20310;-72
2023/02/27 00:03:05;;;;;;;0.30;0.30;;;;;;;;;;5056635;28;20208;-71
2023/02/27 00:05:33;;;;;;;0.30;0.30;;;;;;;;;;5037518;28;20242;-71
2023/02/27 00:07:59;;;;;;;0.30;0.30;;;;;;;;;;5056329;28;20236;-71
2023/02/27 00:10:26;;;;;;;0.30;0.30;;;;;;;;;;5036365;28;20249;-71
2023/02/27 00:12:52;;;;;;;0.30;0.30;;;;;;;;;;5057147;28;20249;-71
2023/02/27 00:15:19;;;;;;;0.30;0.30;;;;;;;;;;5035619;28;20241;-71
2023/02/27 00:17:46;;;;;;;0.30;0.30;;;;;;;;;;5057954;28;20265;-71
2023/02/27 00:20:13;;;;;;;0.30;0.30;;;;;;;;;;5034851;28;20243;-70
2023/02/27 00:22:41;;;;;;;0.30;0.30;;;;;;;;;;5058608;28;20260;-71
2023/02/27 00:25:08;;;;;;;0.30;0.30;;;;;;;;;;5037196;28;20244;-70
2023/02/27 00:27:35;;;;;;;0.30;0.30;;;;;;;;;;5059374;28;20280;-71
2023/02/27 00:30:02;;;;;;;0.30;0.30;;;;;;;;;;5044110;28;20205;-71
2023/02/27 00:32:29;;;;;;;0.30;0.30;;;;;;;;;;5049098;28;20240;-71
2023/02/27 00:34:55;;;;;;;0.30;0.30;;;;;;;;;;5044156;28;20437;-71
2023/02/27 00:37:21;;;;;;;0.30;0.30;;;;;;;;;;5049202;28;20244;-71
2023/02/27 00:39:50;;;;;;;0.30;0.30;;;;;;;;;;5043990;28;20236;-71
2023/02/27 00:42:16;;;;;;;0.30;0.30;;;;;;;;;;5049123;28;20495;-71
2023/02/27 00:44:42;;;;;;;0.30;0.30;;;;;;;;;;5043854;28;20239;-71
2023/02/27 00:47:09;;;;;;;0.30;0.30;;;;;;;;;;5049065;28;20287;-71
2023/02/27 00:49:35;;;;;;;0.30;0.30;;;;;;;;;;5043930;28;20210;-71
2023/02/27 00:52:01;;;;;;;0.30;0.30;;;;;;;;;;5048270;28;20241;-71
2023/02/27 00:54:28;;;;;;;0.30;0.30;;;;;;;;;;5043623;28;20243;-71
2023/02/27 00:56:56;;;;;;;0.30;0.30;;;;;;;;;;5047141;28;20582;-71
2023/02/27 00:59:22;;;;;;;0.30;0.30;;;;;;;;;;5045289;28;20243;-73
2023/02/27 01:01:49;;;;;;;0.30;0.30;;;;;;;;;;5046365;28;20260;-71
2023/02/27 01:04:15;;;;;;;0.30;0.30;;;;;;;;;;5045926;28;20383;-71
2023/02/27 01:06:42;;;;;;;0.30;0.30;;;;;;;;;;5045501;28;20254;-71
2023/02/27 01:09:08;;;;;;;0.30;0.30;;;;;;;;;;5046828;28;20273;-71
2023/02/27 01:11:35;;;;;;;0.30;0.30;;;;;;;;;;5044677;28;20258;-71
2023/02/27 01:14:02;;;;;;;0.30;0.30;;;;;;;;;;5047628;28;20277;-71
2023/02/27 01:16:29;;;;;;;0.30;0.30;;;;;;;;;;5043757;28;20586;-71
2023/02/27 01:18:55;;;;;;;0.30;0.30;;;;;;;;;;5048424;28;20235;-71
2023/02/27 01:21:22;;;;;;;0.37;0.37;;;;;;;;;;5042893;28;20316;-71
2023/02/27 01:23:48;;;;;;;0.30;0.30;;;;;;;;;;5049383;28;20563;-71
2023/02/27 01:26:15;;;;;;;0.40;0.40;;;;;;;;;;5041937;28;20614;-71
2023/02/27 01:28:41;;;;;;;0.30;0.30;;;;;;;;;;5050218;28;20272;-71
2023/02/27 01:31:09;;;;;;;0.30;0.30;;;;;;;;;;5041039;28;20258;-71
2023/02/27 01:33:35;;;;;;;0.30;0.30;;;;;;;;;;5050678;28;20219;-71
2023/02/27 01:36:01;;;;;;;0.30;0.30;;;;;;;;;;5040199;28;20491;-72
2023/02/27 01:38:28;;;;;;;0.30;0.30;;;;;;;;;;5051789;28;20559;-71
2023/02/27 01:40:56;;;;;;;0.30;0.30;;;;;;;;;;5039234;28;20243;-71
2023/02/27 01:43:22;;;;;;;0.30;0.30;;;;;;;;;;5052445;28;20209;-71
2023/02/27 01:45:49;;;;;;;0.30;0.30;;;;;;;;;;5038787;28;20648;-71
2023/02/27 01:48:19;;;;;;;0.30;0.30;;;;;;;;;;5053221;28;20281;-71
2023/02/27 01:50:48;;;;;;;0.40;0.40;;;;;;;;;;5038084;28;20308;-71
2023/02/27 01:53:14;;;;;;;0.30;0.30;;;;;;;;;;5053047;28;20247;-71
2023/02/27 01:55:41;;;;;;;0.30;0.30;;;;;;;;;;5037549;28;20246;-72
2023/02/27 01:58:08;;;;;;;0.30;0.30;;;;;;;;;;5054156;28;20247;-71
2023/02/27 02:00:35;;;;;;;0.30;0.30;;;;;;;;;;5036606;28;20306;-71
2023/02/27 02:03:15;;;;;;;0.30;0.30;;;;;;;;;;5054924;28;20270;-71
2023/02/27 02:05:43;;;;;;;0.30;0.30;;;;;;;;;;5038767;28;20268;-71
2023/02/27 02:08:10;;;;;;;0.30;0.30;;;;;;;;;;5057657;28;20222;-72
2023/02/27 02:10:38;;;;;;;0.30;0.30;;;;;;;;;;5040413;28;20259;-71
2023/02/27 02:13:04;;;;;;;0.30;0.30;;;;;;;;;;5057817;28;20194;-71
2023/02/27 02:15:33;;;;;;;0.30;0.30;;;;;;;;;;5039413;28;20263;-72
2023/02/27 02:18:08;;;;;;;0.30;0.30;;;;;;;;;;5058272;28;20293;-71
2023/02/27 02:20:58;;;;;;;0.30;0.30;;;;;;;;;;5039933;28;20240;-71
2023/02/27 02:23:42;;;;;;;0.60;0.60;;;;;;;;;;5055397;28;20193;-71
2023/02/27 02:26:18;;;;;;;0.30;0.30;;;;;;;;;;5044056;28;20435;-71
2023/02/27 02:29:09;;;;;;;0.30;0.30;;;;;;;;;;5052398;28;20193;-71
2023/02/27 02:32:00;;;;;;;0.30;0.30;;;;;;;;;;5017950;28;20306;-71
2023/02/27 02:34:41;;;;;;;0.20;0.20;;;;;;;;;;5026228;28;20205;-71
2023/02/27 02:37:26;;;;;;;0.30;0.30;;;;;;;;;;5045898;28;20243;-71
2023/02/27 02:40:00;;;;;;;0.27;0.27;;;;;;;;;;5046024;28;20211;-71
2023/02/27 02:42:31;;;;;;;0.23;0.23;;;;;;;;;;5051382;28;20266;-71
2023/02/27 02:45:02;;;;;;;0.30;0.30;;;;;;;;;;5046088;28;20206;-71
2023/02/27 02:47:32;;;;;;;0.20;0.20;;;;;;;;;;5051274;28;20237;-71
2023/02/27 02:50:03;;;;;;;0.20;0.20;;;;;;;;;;5045708;28;20240;-71
2023/02/27 02:52:34;;;;;;;0.30;0.30;;;;;;;;;;5051187;28;20594;-71
2023/02/27 02:55:07;;;;;;;0.30;0.30;;;;;;;;;;5046067;28;20213;-71
2023/02/27 02:57:37;;;;;;;0.23;0.23;;;;;;;;;;5034314;28;20229;-71
2023/02/27 03:00:06;;;;;;;0.27;0.27;;;;;;;;;;5045928;28;20682;-71
2023/02/27 03:02:35;;;;;;;0.20;0.20;;;;;;;;;;5034396;28;20537;-71
2023/02/27 03:05:03;;;;;;;0.20;0.20;;;;;;;;;;5045464;28;20392;-71
2023/02/27 03:07:31;;;;;;;0.30;0.30;;;;;;;;;;5050908;28;20245;-71
2023/02/27 03:10:01;;;;;;;0.23;0.23;;;;;;;;;;5045776;28;20210;-71
2023/02/27 03:12:29;;;;;;;0.30;0.30;;;;;;;;;;5050735;28;20565;-72
2023/02/27 03:14:58;;;;;;;0.20;0.20;;;;;;;;;;5045248;28;20276;-71
2023/02/27 03:17:27;;;;;;;0.30;0.30;;;;;;;;;;5049932;28;20243;-71
2023/02/27 03:19:56;;;;;;;0.27;0.27;;;;;;;;;;5045510;28;20205;-71
2023/02/27 03:22:25;;;;;;;0.30;0.30;;;;;;;;;;5050599;28;20250;-71
2023/02/27 03:24:53;;;;;;;0.20;0.20;;;;;;;;;;5045451;28;20498;-71
2023/02/27 03:27:20;;;;;;;0.30;0.30;;;;;;;;;;5050473;28;20254;-71
2023/02/27 03:29:51;;;;;;;0.30;0.30;;;;;;;;;;5045281;28;20207;-71
2023/02/27 03:32:20;;;;;;;0.20;0.20;;;;;;;;;;5050413;28;20425;-71
2023/02/27 03:34:46;;;;;;;0.30;0.30;;;;;;;;;;5045144;28;20312;-71
2023/02/27 03:37:20;;;;;;;0.20;0.20;;;;;;;;;;5050229;28;20242;-71
2023/02/27 03:39:48;;;;;;;0.20;0.20;;;;;;;;;;5044692;28;20276;-71
2023/02/27 03:42:18;;;;;;;0.20;0.20;;;;;;;;;;5050164;28;20250;-71
2023/02/27 03:44:50;;;;;;;0.30;0.30;;;;;;;;;;5045043;28;20293;-71
2023/02/27 03:47:18;;;;;;;0.20;0.20;;;;;;;;;;5050000;28;20301;-71
2023/02/27 03:49:44;;;;;;;0.20;0.20;;;;;;;;;;5044770;28;20220;-71
2023/02/27 03:52:11;;;;;;;0.27;0.27;;;;;;;;;;5050067;28;20316;-71
2023/02/27 03:54:41;;;;;;;0.27;0.27;;;;;;;;;;5044844;28;20238;-71
2023/02/27 03:57:08;;;;;;;0.20;0.20;;;;;;;;;;5049777;28;20453;-71
2023/02/27 03:59:35;;;;;;;0.30;0.30;;;;;;;;;;5044785;28;20451;-71
2023/02/27 04:02:02;;;;;;;0.30;0.30;;;;;;;;;;5049074;28;20247;-71
2023/02/27 04:04:31;;;;;;;0.20;0.20;;;;;;;;;;5044987;28;20297;-71
2023/02/27 04:07:23;;;;;;;0.20;0.20;;;;;;;;;;5048247;28;20238;-71
2023/02/27 04:10:03;;;;;;;0.20;0.20;;;;;;;;;;5044592;28;20210;-71
2023/02/27 04:12:36;;;;;;;0.20;0.20;;;;;;;;;;5049663;28;20242;-71
2023/02/27 04:15:08;;;;;;;0.20;0.20;;;;;;;;;;5044530;28;20541;-71
2023/02/27 04:17:40;;;;;;;0.20;0.20;;;;;;;;;;5032880;28;20297;-71
2023/02/27 04:20:25;;;;;;;0.20;0.20;;;;;;;;;;5043340;28;20276;-70
2023/02/27 04:22:55;;;;;;;0.20;0.20;;;;;;;;;;5044097;28;20275;-71
2023/02/27 04:25:29;;;;;;;0.20;0.20;;;;;;;;;;5036021;28;20237;-71
2023/02/27 04:27:58;;;;;;;0.20;0.20;;;;;;;;;;5056763;28;20530;-71
2023/02/27 04:30:27;;;;;;;0.20;0.20;;;;;;;;;;5035406;28;20239;-71
2023/02/27 04:32:55;;;;;;;0.20;0.20;;;;;;;;;;5056897;28;20282;-71
2023/02/27 04:35:25;;;;;;;0.20;0.20;;;;;;;;;;5035675;28;20277;-71
2023/02/27 04:37:55;;;;;;;0.20;0.20;;;;;;;;;;5056795;28;20224;-71
2023/02/27 04:40:24;;;;;;;0.30;0.30;;;;;;;;;;5035771;28;20209;-71
2023/02/27 04:42:53;;;;;;;0.20;0.20;;;;;;;;;;5056926;28;20233;-71
2023/02/27 04:45:21;;;;;;;0.20;0.20;;;;;;;;;;5035369;28;20384;-71
2023/02/27 04:47:49;;;;;;;0.20;0.20;;;;;;;;;;5057580;28;20385;-71
2023/02/27 04:50:19;;;;;;;0.20;0.20;;;;;;;;;;5034754;28;20608;-71
2023/02/27 04:52:49;;;;;;;0.20;0.20;;;;;;;;;;5057386;28;20194;-71
2023/02/27 04:55:20;;;;;;;0.20;0.20;;;;;;;;;;5034696;28;20208;-71
2023/02/27 04:57:48;;;;;;;0.20;0.20;;;;;;;;;;5057590;28;20414;-71
2023/02/27 05:00:16;;;;;;;0.20;0.20;;;;;;;;;;5034261;28;20206;-71
2023/02/27 05:02:43;;;;;;;0.20;0.20;;;;;;;;;;5057718;28;20262;-71
2023/02/27 05:05:12;;;;;;;0.30;0.30;;;;;;;;;;5033671;28;20261;-71
2023/02/27 05:07:41;;;;;;;0.30;0.30;;;;;;;;;;5058557;28;20230;-71
2023/02/27 05:10:10;;;;;;;0.20;0.20;;;;;;;;;;5038973;28;20237;-70
2023/02/27 05:12:41;;;;;;;0.20;0.20;;;;;;;;;;5058545;28;20288;-71
2023/02/27 05:15:10;;;;;;;0.20;0.20;;;;;;;;;;5040088;28;20249;-70
2023/02/27 05:17:41;;;;;;;0.20;0.20;;;;;;;;;;5058180;28;20230;-71
2023/02/27 05:20:07;;;;;;;0.20;0.20;;;;;;;;;;5040502;28;20234;-72
2023/02/27 05:22:40;;;;;;;0.20;0.20;;;;;;;;;;5058855;28;20218;-71
2023/02/27 05:25:10;;;;;;;0.27;0.27;;;;;;;;;;5043505;28;20243;-71
2023/02/27 05:27:39;;;;;;;0.20;0.20;;;;;;;;;;5032122;28;20281;-71
2023/02/27 05:30:11;;;;;;;0.20;0.20;;;;;;;;;;5043447;28;20238;-71
2023/02/27 05:32:40;;;;;;;2.93;2.83;;;;;;;;;;5031918;28;20245;-71
2023/02/27 05:35:10;;;;;;;0.23;0.23;;;;;;;;;;5042800;28;20217;-70
2023/02/27 05:37:39;;;;;;;2.00;1.90;;;;;;;;;;5058329;28;20270;-71
2023/02/27 05:40:07;;;;;;;0.20;0.20;;;;;;;;;;5043584;28;20215;-71
2023/02/27 05:42:35;;;;;;;0.20;0.20;;;;;;;;;;5035851;28;20219;-71
2023/02/27 05:45:07;;;;;;;0.20;0.20;;;;;;;;;;5046920;28;20204;-71
2023/02/27 05:47:35;;;;;;;0.20;0.20;;;;;;;;;;5035640;28;20210;-71
2023/02/27 05:50:03;;;;;;;0.20;0.20;;;;;;;;;;5046991;28;20205;-71
2023/02/27 05:52:30;;;;;;;0.20;0.20;;;;;;;;;;5052185;28;20238;-72
2023/02/27 05:54:59;;;;;;;0.20;0.20;;;;;;;;;;5047079;28;20238;-71
2023/02/27 05:57:29;;;;;;;0.27;0.27;;;;;;;;;;5052158;28;20238;-71
2023/02/27 05:59:58;;;;;;;0.20;0.20;;;;;;;;;;5046993;28;20209;-71
2023/02/27 06:02:25;;;;;;;0.30;0.30;;;;;;;;;;5051959;28;20291;-71
2023/02/27 06:04:52;;;;;;;0.20;0.20;;;;;;;;;;5046500;28;20301;-71
2023/02/27 06:07:18;;;;;;;0.20;0.20;;;;;;;;;;5051943;28;20317;-71
2023/02/27 06:09:45;;;;;;;0.20;0.20;;;;;;;;;;5046613;28;20206;-70
2023/02/27 06:12:11;;;;;;;0.20;0.20;;;;;;;;;;5051871;28;20446;-71
2023/02/27 06:14:38;;;;;;;0.20;0.20;;;;;;;;;;5046693;28;20392;-71
2023/02/27 06:17:04;;;;;;;0.20;0.20;;;;;;;;;;5051211;28;20603;-71
2023/02/27 06:19:32;;;;;;;0.20;0.20;;;;;;;;;;5046853;28;20461;-71
2023/02/27 06:21:58;;;;;;;0.23;0.23;;;;;;;;;;5050535;28;20510;-71
2023/02/27 06:24:25;;;;;;;0.20;0.20;;;;;;;;;;5047575;28;20271;-71
2023/02/27 06:26:52;;;;;;;0.20;0.20;;;;;;;;;;5049537;28;20246;-71
2023/02/27 06:29:18;;;;;;;0.30;0.30;;;;;;;;;;5047922;28;20242;-71
2023/02/27 06:31:44;;;;;;;0.30;0.30;;;;;;;;;;5048483;28;20253;-71
2023/02/27 06:34:11;;;;;;;0.30;0.30;;;;;;;;;;5048682;28;20468;-71
2023/02/27 06:36:39;;;;;;;0.30;0.30;;;;;;;;;;5047395;28;20261;-71
2023/02/27 06:39:05;;;;;;;0.30;0.30;;;;;;;;;;5049642;28;20573;-71
2023/02/27 06:41:32;;;;;;;0.20;0.20;;;;;;;;;;5046899;28;20249;-71
2023/02/27 06:43:58;;;;;;;0.20;0.20;;;;;;;;;;5050405;28;20262;-70
2023/02/27 06:46:25;;;;;;;0.30;0.30;;;;;;;;;;5045794;28;20492;-71
2023/02/27 06:48:51;;;;;;;0.20;0.20;;;;;;;;;;5051488;28;20425;-71
2023/02/27 06:51:17;;;;;;;0.30;0.30;;;;;;;;;;5044613;28;20241;-71
2023/02/27 06:53:45;;;;;;;0.30;0.30;;;;;;;;;;5051423;28;20453;-71
2023/02/27 06:56:11;;;;;;;0.30;0.30;;;;;;;;;;5044199;28;20323;-71
2023/02/27 06:58:38;;;;;;;0.20;0.20;;;;;;;;;;5052571;28;20261;-71
2023/02/27 07:01:04;;;;;;;0.23;0.23;;;;;;;;;;5042749;28;20265;-70
2023/02/27 07:03:31;;;;;;;0.20;0.20;;;;;;;;;;5053762;28;20474;-71
2023/02/27 07:05:57;;;;;;;0.20;0.20;;;;;;;;;;5042073;28;20257;-71
2023/02/27 07:08:24;;;;;;;0.30;0.30;;;;;;;;;;5054618;28;20551;-71
2023/02/27 07:10:51;;;;;;;0.23;0.23;;;;;;;;;;5041081;28;20248;-70
2023/02/27 07:13:18;;;;;;;0.20;0.20;;;;;;;;;;5055103;28;20207;-71
2023/02/27 07:15:45;;;;;;;0.20;0.20;;;;;;;;;;5040199;28;20310;-71
2023/02/27 07:18:11;;;;;;;0.20;0.20;;;;;;;;;;5055597;28;20226;-71
2023/02/27 07:20:38;;;;;;;0.20;0.20;;;;;;;;;;5039225;28;20265;-71
2023/02/27 07:23:05;;;;;;;0.20;0.20;;;;;;;;;;5056744;28;20511;-70
2023/02/27 07:25:31;;;;;;;0.20;0.20;;;;;;;;;;5038320;28;20301;-71
2023/02/27 07:27:59;;;;;;;0.20;0.20;;;;;;;;;;5057625;28;20230;-70
2023/02/27 07:30:25;;;;;;;0.20;0.20;;;;;;;;;;5037393;28;20278;-70
2023/02/27 07:32:52;;;;;;;0.20;0.20;;;;;;;;;;5058238;28;20287;-71
2023/02/27 07:35:18;;;;;;;0.20;0.20;;;;;;;;;;5036454;28;20219;-70
2023/02/27 07:37:46;;;;;;;0.20;0.20;;;;;;;;;;5058784;28;20195;-71
2023/02/27 07:40:13;;;;;;;0.20;0.20;;;;;;;;;;5035734;28;20290;-70
2023/02/27 07:42:39;;;;;;;0.20;0.20;;;;;;;;;;5059803;28;20234;-71
2023/02/27 07:45:08;;;;;;;0.20;0.20;;;;;;;;;;5044953;28;20250;-71
2023/02/27 07:47:35;;;;;;;0.20;0.20;;;;;;;;;;5033578;28;20213;-70
2023/02/27 07:50:01;;;;;;;0.20;0.20;;;;;;;;;;5044877;28;20212;-73
2023/02/27 07:52:27;;;;;;;0.20;0.20;;;;;;;;;;5049999;28;20252;-72
2023/02/27 07:54:54;;;;;;;0.20;0.20;;;;;;;;;;5044976;28;20243;-74
2023/02/27 07:57:20;;;;;;;0.20;0.20;;;;;;;;;;5050039;28;20240;-74
2023/02/27 07:59:47;;;;;;;0.20;0.20;;;;;;;;;;5044594;28;20228;-74
2023/02/27 08:02:15;;;;;;;0.20;0.20;;;;;;;;;;5049958;28;20252;-74
2023/02/27 08:04:42;;;;;;;0.20;0.20;;;;;;;;;;5044148;28;20238;-73
2023/02/27 08:07:08;;;;;;;0.20;0.20;;;;;;;;;;5049697;28;20273;-73
2023/02/27 08:09:35;;;;;;;0.20;0.20;;;;;;;;;;5044568;28;20201;-73
2023/02/27 08:12:02;;;;;;;0.20;0.20;;;;;;;;;;5048435;28;20243;-73
2023/02/27 08:14:28;;;;;;;0.10;0.10;;;;;;;;;;5045108;28;20564;-73
2023/02/27 08:16:54;;;;;;;0.10;0.10;;;;;;;;;;5047783;28;20255;-73
2023/02/27 08:19:22;;;;;;;0.20;0.20;;;;;;;;;;5045544;28;20288;-73
2023/02/27 08:21:48;;;;;;;0.20;0.20;;;;;;;;;;5046991;28;20314;-74
2023/02/27 08:24:15;;;;;;;0.10;0.10;;;;;;;;;;5046689;28;20275;-72
2023/02/27 08:26:41;;;;;;;0.20;0.20;;;;;;;;;;5045908;28;20252;-73
2023/02/27 08:29:07;;;;;;;0.10;0.10;;;;;;;;;;5047127;28;20238;-72
2023/02/27 08:31:34;;;;;;;0.10;0.10;;;;;;;;;;5044980;28;20303;-73
2023/02/27 08:34:00;;;;;;;0.10;0.10;;;;;;;;;;5047977;28;20213;-72
2023/02/27 08:36:28;;;;;;;0.20;0.20;;;;;;;;;;5043847;28;20303;-72
2023/02/27 08:38:54;;;;;;;0.20;0.20;;;;;;;;;;5049014;28;20537;-72
2023/02/27 08:41:22;;;;;;;0.10;0.10;;;;;;;;;;5043036;28;20509;-74
2023/02/27 08:43:48;;;;;;;0.10;0.10;;;;;;;;;;5049434;28;20212;-73
2023/02/27 08:46:15;;;;;;;0.20;0.20;;;;;;;;;;5042398;28;20276;-73
2023/02/27 08:48:42;;;;;;;0.10;0.10;;;;;;;;;;5050369;28;20268;-74
2023/02/27 08:51:09;;;;;;;0.20;0.20;;;;;;;;;;5041580;28;20306;-73
2023/02/27 08:53:36;;;;;;;0.20;0.20;;;;;;;;;;5051047;28;20247;-74
2023/02/27 08:56:03;;;;;;;0.17;0.17;;;;;;;;;;5040678;28;20241;-74
2023/02/27 08:58:30;;;;;;;0.20;0.20;;;;;;;;;;5051686;28;20296;-73
2023/02/27 09:00:56;;;;;;;0.10;0.10;;;;;;;;;;5039841;28;20303;-74
2023/02/27 09:03:27;;;;;;;0.20;0.20;;;;;;;;;;5052532;28;20232;-74
2023/02/27 09:05:53;;;;;;;0.17;0.17;;;;;;;;;;5039205;28;20589;-72
2023/02/27 09:08:20;;;;;;;0.10;0.10;;;;;;;;;;5053196;28;20271;-73
2023/02/27 09:10:48;;;;;;;0.13;0.13;;;;;;;;;;5038372;28;20248;-72
2023/02/27 09:13:14;;;;;;;0.10;0.10;;;;;;;;;;5053982;28;20388;-74
2023/02/27 09:15:41;;;;;;;0.20;0.20;;;;;;;;;;5038733;28;20304;-73
2023/02/27 09:18:08;;;;;;;0.17;0.17;;;;;;;;;;5058724;28;20233;-73
2023/02/27 09:20:35;;;;;;;0.10;0.10;;;;;;;;;;5041160;28;20579;-73
2023/02/27 09:23:01;;;;;;;0.10;0.10;;;;;;;;;;5059428;28;20504;-73
2023/02/27 09:25:28;;;;;;;0.10;0.10;;;;;;;;;;5040118;28;20294;-73
2023/02/27 09:27:56;;;;;;;0.10;0.10;;;;;;;;;;5060255;28;20481;-73
2023/02/27 09:30:23;;;;;;;0.10;0.10;;;;;;;;;;5039079;28;20462;-72
2023/02/27 09:32:49;;;;;;;0.17;0.17;;;;;;;;;;5060579;28;20220;-72
2023/02/27 09:35:19;;;;;;;0.10;0.10;;;;;;;;;;5038363;28;20210;-72
2023/02/27 09:37:45;;;;;;;0.20;0.20;;;;;;;;;;5061076;28;20261;-74
2023/02/27 09:40:15;;;;;;;0.13;0.13;;;;;;;;;;5037519;28;20297;-72
2023/02/27 09:42:45;;;;;;;0.20;0.20;;;;;;;;;;5061712;28;20445;-73
2023/02/27 09:45:16;;;;;;;0.10;0.10;;;;;;;;;;5037708;28;20364;-72
2023/02/27 09:47:46;;;;;;;0.20;0.20;;;;;;;;;;5061303;28;20264;-74
2023/02/27 09:50:21;;;;;;;0.20;0.20;;;;;;;;;;5037607;28;20208;-72
2023/02/27 09:52:47;;;;;;;0.10;0.10;;;;;;;;;;5060819;28;20479;-73
2023/02/27 09:55:17;;;;;;;0.30;0.30;;;;;;;;;;5037191;28;20269;-72
2023/02/27 09:57:46;;;;;;;0.20;0.20;;;;;;;;;;5061271;28;20481;-74
2023/02/27 10:00:23;;;;;;;0.10;0.10;;;;;;;;;;5037306;28;20482;-71
2023/02/27 10:02:54;;;;;;;0.10;0.10;;;;;;;;;;5060360;28;20512;-74
2023/02/27 10:05:24;;;;;;;0.10;0.10;;;;;;;;;;5038386;28;20266;-73
2023/02/27 10:07:56;;;;;;;0.10;0.10;;;;;;;;;;5060067;28;20199;-74
2023/02/27 10:10:28;;;;;;;0.10;0.10;;;;;;;;;;5038489;28;20275;-73
2023/02/27 10:13:00;;;;;;;0.10;0.10;;;;;;;;;;5059383;28;20224;-73
2023/02/27 10:15:29;;;;;;;0.10;0.10;;;;;;;;;;5038887;28;20212;-73
2023/02/27 10:17:58;;;;;;;0.10;0.10;;;;;;;;;;5059048;28;20193;-74
2023/02/27 10:20:27;;;;;;;0.10;0.10;;;;;;;;;;5038496;28;20464;-73
2023/02/27 10:22:55;;;;;;;0.10;0.10;;;;;;;;;;5059444;28;20267;-74
2023/02/27 10:25:21;;;;;;;0.10;0.10;;;;;;;;;;5038097;28;20239;-73
2023/02/27 10:27:49;;;;;;;0.10;0.10;;;;;;;;;;5059990;28;20265;-73
2023/02/27 10:30:20;;;;;;;0.10;0.10;;;;;;;;;;5037189;28;20202;-73
2023/02/27 10:32:49;;;;;;;0.10;0.10;;;;;;;;;;5060025;28;20256;-73
2023/02/27 10:35:21;;;;;;;0.10;0.10;;;;;;;;;;5037144;28;20279;-73
2023/02/27 10:37:50;;;;;;;0.10;0.10;;;;;;;;;;5060003;28;20234;-74
2023/02/27 10:40:19;;;;;;;0.10;0.10;;;;;;;;;;5037151;28;20255;-73
2023/02/27 10:42:45;;;;;;;0.10;0.10;;;;;;;;;;5060258;28;20380;-73
2023/02/27 10:45:13;;;;;;;0.10;0.10;;;;;;;;;;5036463;28;20276;-73
2023/02/27 10:47:40;;;;;;;0.10;0.10;;;;;;;;;;5060563;28;20195;-74
2023/02/27 10:50:19;;;;;;;0.10;0.10;;;;;;;;;;5045987;28;20279;-73
2023/02/27 10:52:49;;;;;;;0.10;0.10;;;;;;;;;;5045751;28;20190;-73
2023/02/27 10:55:17;;;;;;;0.10;0.10;;;;;;;;;;5036719;28;20213;-73
2023/02/27 10:57:43;;;;;;;0.10;0.10;;;;;;;;;;5060266;28;20411;-73
2023/02/27 11:00:22;;;;;;;0.17;0.17;;;;;;;;;;5036295;28;20263;-72
2023/02/27 11:02:50;;;;;;;0.10;0.10;;;;;;;;;;5045933;28;20238;-73
2023/02/27 11:05:22;;;;;;;0.10;0.10;;;;;;;;;;5036950;28;20234;-73
2023/02/27 11:07:48;;;;;;;0.10;0.10;;;;;;;;;;5059092;28;20269;-75
2023/02/27 11:10:18;;;;;;;0.10;0.10;;;;;;;;;;5036219;28;20202;-73
2023/02/27 11:12:58;;;;;;;0.10;0.10;;;;;;;;;;5059397;28;20196;-74
2023/02/27 11:15:25;;;;;;;0.10;0.10;;;;;;;;;;5037677;28;20239;-73
2023/02/27 11:17:53;;;;;;;0.10;0.10;;;;;;;;;;5058557;28;20400;-74
2023/02/27 11:20:34;;;;;;;0.20;0.20;;;;;;;;;;5037033;28;20241;-74
2023/02/27 11:23:04;;;;;;;0.10;0.10;;;;;;;;;;5057461;28;20361;-73
2023/02/27 11:25:32;;;;;;;0.20;0.20;;;;;;;;;;5038418;28;20320;-70
2023/02/27 11:28:12;;;;;;;0.20;0.20;;;;;;;;;;5057242;28;20198;-73
2023/02/27 11:30:38;;;;;;;0.20;0.20;;;;;;;;;;5039191;28;20586;-72
2023/02/27 11:33:11;;;;;;;0.20;0.20;;;;;;;;;;5056340;28;20277;-73
2023/02/27 11:35:39;;;;;;;0.10;0.10;;;;;;;;;;5038843;28;20242;-72
2023/02/27 11:38:07;;;;;;;0.20;0.20;;;;;;;;;;5055832;28;20235;-73
2023/02/27 11:40:37;;;;;;;0.10;0.10;;;;;;;;;;5038455;28;20602;-75
2023/02/27 11:43:05;;;;;;;0.10;0.10;;;;;;;;;;5056598;28;20411;-77
2023/02/27 11:45:32;;;;;;;0.10;0.10;;;;;;;;;;5038072;28;20563;-74
2023/02/27 11:48:00;;;;;;;0.10;0.10;;;;;;;;;;5056825;28;20279;-72
2023/02/27 11:50:39;;;;;;;0.20;0.20;;;;;;;;;;5037285;28;20248;-71
2023/02/27 11:53:15;;;;;;;0.20;0.20;;;;;;;;;;5055988;28;20254;-69
2023/02/27 11:55:42;;;;;;;0.10;0.10;;;;;;;;;;5039107;28;20263;-72
2023/02/27 11:58:11;;;;;;;0.17;0.17;;;;;;;;;;5055725;28;20460;-72
2023/02/27 12:00:41;;;;;;;0.10;0.10;;;;;;;;;;5037914;28;20502;-72
2023/02/27 12:03:16;;;;;;;0.20;0.20;;;;;;;;;;5055802;28;20273;-72
2023/02/27 12:05:44;;;;;;;0.10;0.10;;;;;;;;;;5039009;28;20302;-72
2023/02/27 12:08:14;;;;;;;0.10;0.10;;;;;;;;;;5055090;28;20268;-72
2023/02/27 12:10:44;;;;;;;0.10;0.10;;;;;;;;;;5038698;28;20319;-72
2023/02/27 12:13:13;;;;;;;0.10;0.10;;;;;;;;;;5055200;28;20193;-72
2023/02/27 12:15:44;;;;;;;0.10;0.10;;;;;;;;;;5038598;28;20326;-72
2023/02/27 12:18:14;;;;;;;0.10;0.10;;;;;;;;;;5055144;28;20196;-72
2023/02/27 12:20:43;;;;;;;0.10;0.10;;;;;;;;;;5038366;28;20313;-72
2023/02/27 12:23:15;;;;;;;0.10;0.10;;;;;;;;;;5055166;28;20517;-72
2023/02/27 12:25:45;;;;;;;0.10;0.10;;;;;;;;;;5038653;28;20602;-72
2023/02/27 12:28:27;;;;;;;0.10;0.10;;;;;;;;;;5054504;28;20207;-73
2023/02/27 12:31:00;;;;;;;0.10;0.10;;;;;;;;;;5040041;28;20267;-73
2023/02/27 12:33:32;;;;;;;0.10;0.10;;;;;;;;;;5052640;28;20415;-73
2023/02/27 12:36:01;;;;;;;0.10;0.10;;;;;;;;;;5040595;28;20614;-73
2023/02/27 12:38:28;;;;;;;0.10;0.10;;;;;;;;;;5052603;28;20274;-73
2023/02/27 12:41:01;;;;;;;0.10;0.10;;;;;;;;;;5039970;28;20263;-72
2023/02/27 12:43:31;;;;;;;0.10;0.10;;;;;;;;;;5052236;28;20199;-72
2023/02/27 12:46:18;;;;;;;0.10;0.10;;;;;;;;;;5040257;28;20312;-71
2023/02/27 12:48:52;;;;;;;0.10;0.10;;;;;;;;;;5043440;28;20275;-72
2023/02/27 12:51:26;;;;;;;0.10;0.10;;;;;;;;;;5042089;28;20307;-72
2023/02/27 12:54:00;;;;;;;0.10;0.10;;;;;;;;;;5048898;28;20264;-72
2023/02/27 12:56:31;;;;;;;0.10;0.10;;;;;;;;;;5043742;28;20266;-71
2023/02/27 12:59:00;;;;;;;0.10;0.10;;;;;;;;;;5048332;28;20364;-72
2023/02/27 13:01:32;;;;;;;0.10;0.10;;;;;;;;;;5043326;28;20351;-72
2023/02/27 13:04:00;;;;;;;0.10;0.10;;;;;;;;;;5048105;28;20467;-72
2023/02/27 13:06:29;;;;;;;0.10;0.10;;;;;;;;;;5043545;28;20442;-72
2023/02/27 13:09:12;;;;;;;0.10;0.10;;;;;;;;;;5048416;28;20504;-71
2023/02/27 13:11:44;;;;;;;0.13;0.13;;;;;;;;;;5044914;28;20242;-72
2023/02/27 13:14:15;;;;;;;0.10;0.10;;;;;;;;;;5046475;28;20263;-72
2023/02/27 13:16:43;;;;;;;0.10;0.10;;;;;;;;;;5045432;28;20258;-72
2023/02/27 13:19:14;;;;;;;0.10;0.10;;;;;;;;;;5046574;28;20205;-72
2023/02/27 13:21:43;;;;;;;0.33;0.33;;;;;;;;;;5045267;28;20239;-72
2023/02/27 13:24:27;;;;;;;0.10;0.10;;;;;;;;;;5046607;28;20232;-72
2023/02/27 13:26:58;;;;;;;0.10;0.10;;;;;;;;;;5046786;28;20484;-72
2023/02/27 13:29:26;;;;;;;0.10;0.10;;;;;;;;;;5044662;28;20208;-72
2023/02/27 13:31:58;;;;;;;0.10;0.10;;;;;;;;;;5046588;28;20246;-71
2023/02/27 13:34:28;;;;;;;0.10;0.10;;;;;;;;;;5044564;28;20271;-71
2023/02/27 13:36:57;;;;;;;0.10;0.10;;;;;;;;;;5046851;28;20488;-71
2023/02/27 13:39:36;;;;;;;0.10;0.10;;;;;;;;;;5044484;28;20240;-71
2023/02/27 13:42:05;;;;;;;0.10;0.10;;;;;;;;;;5047866;28;20274;-72
2023/02/27 13:44:39;;;;;;;0.10;0.10;;;;;;;;;;5043477;28;20388;-71
2023/02/27 13:47:24;;;;;;;0.10;0.10;;;;;;;;;;5048202;28;20267;-72
2023/02/27 13:49:51;;;;;;;0.10;0.10;;;;;;;;;;5043317;28;20275;-72
2023/02/27 13:52:27;;;;;;;0.10;0.10;;;;;;;;;;5048366;28;20301;-72
2023/02/27 13:54:54;;;;;;;0.10;0.10;;;;;;;;;;5043294;28;20275;-72
2023/02/27 13:57:23;;;;;;;0.10;0.10;;;;;;;;;;5048416;28;20370;-72
2023/02/27 14:00:04;;;;;;;0.10;0.10;;;;;;;;;;5043201;28;20489;-72
2023/02/27 14:02:35;;;;;;;0.10;0.10;;;;;;;;;;5050888;28;20240;-72
2023/02/27 14:05:05;;;;;;;0.10;0.10;;;;;;;;;;5046749;28;20257;-72
2023/02/27 14:07:33;;;;;;;0.10;0.10;;;;;;;;;;5052066;28;20256;-73
2023/02/27 14:10:01;;;;;;;0.10;0.10;;;;;;;;;;5046763;28;20201;-73
2023/02/27 14:12:30;;;;;;;0.10;0.10;;;;;;;;;;5051957;28;20242;-72
2023/02/27 14:14:56;;;;;;;0.10;0.10;;;;;;;;;;5046662;28;20220;-72
2023/02/27 14:17:40;;;;;;;0.10;0.10;;;;;;;;;;5051867;28;20262;-72
2023/02/27 14:20:13;;;;;;;0.13;0.13;;;;;;;;;;5046591;28;20238;-70
2023/02/27 14:22:42;;;;;;;0.10;0.10;;;;;;;;;;5051816;28;20437;-74
2023/02/27 14:25:15;;;;;;;0.10;0.10;;;;;;;;;;5036644;28;20390;-73
2023/02/27 14:27:48;;;;;;;0.10;0.10;;;;;;;;;;5060723;28;20195;-73
2023/02/27 14:30:23;;;;;;;0.10;0.10;;;;;;;;;;5037199;28;20432;-72
2023/02/27 14:32:54;;;;;;;0.10;0.10;;;;;;;;;;5059413;28;20246;-73
2023/02/27 14:35:21;;;;;;;0.10;0.10;;;;;;;;;;5037922;28;20215;-73
2023/02/27 14:37:47;;;;;;;0.10;0.10;;;;;;;;;;5060088;28;20263;-73
2023/02/27 14:40:16;;;;;;;0.10;0.10;;;;;;;;;;5036820;28;20260;-74
2023/02/27 14:42:47;;;;;;;0.10;0.10;;;;;;;;;;5060396;28;20224;-74
2023/02/27 14:45:16;;;;;;;0.10;0.10;;;;;;;;;;5036887;28;20277;-73
2023/02/27 14:47:44;;;;;;;0.60;0.60;;;;;;;;;;5060150;28;20264;-74
2023/02/27 14:50:21;;;;;;;0.20;0.20;;;;;;;;;;5036240;28;20270;-73
2023/02/27 14:52:47;;;;;;;0.13;0.13;;;;;;;;;;5059502;28;20262;-73
2023/02/27 14:55:16;;;;;;;0.20;0.20;;;;;;;;;;5036626;28;20243;-72